Argo, Illinois
Current Conditions -  °F | °C
As of 1:53 PM on Thursday 30 Oct 2014 (Local Time) from KMDW Reporting Station
Overcast Overcast  
Wind Chill: 11°   Ceiling: 10000
Heat Index: 11°   Visibility: 10mi
Dew Point:   Wind: 12mph
Humidity: 54%   Direction: 250°WSW
Pressure: 30.07"   Gusts: NA
Location:  41.7806°N, 87.8151°W
Report Text: KMDW 301853Z 25010KT 10SM FEW038 BKN100 BKN200 OVC250 11/02 A3007 RMK AO2 SLP188 T01110022
Loading
Personal Weather Stations






























Interactive Weather Map
Tropical Storm Tracking
New forecast layout! Learn more

10-Day Weather Forecast

Advertisements
Track Severe Weather on mobile